sensor_id;sensor_type;location;lat;lon;timestamp;pressure;altitude;pressure_sealevel;temperature;humidity
33731;BME280;22931;48.636;9.000;2023-07-31T00:46:50;96123.81;;;18.25;56.38
33731;BME280;22931;48.636;9.000;2023-07-31T03:18:19;96023.59;;;17.64;57.60
33731;BME280;22931;48.636;9.000;2023-07-31T05:12:04;96010.41;;;18.17;57.76
33731;BME280;22931;48.636;9.000;2023-07-31T05:27:05;96010.78;;;18.26;57.45
33731;BME280;22931;48.636;9.000;2023-07-31T05:59:47;96011.97;;;18.71;57.61
33731;BME280;22931;48.636;9.000;2023-07-31T06:04:55;96003.94;;;18.78;57.69
33731;BME280;22931;48.636;9.000;2023-07-31T06:10:04;96006.22;;;18.83;57.22
33731;BME280;22931;48.636;9.000;2023-07-31T06:15:15;96010.38;;;18.91;57.45
33731;BME280;22931;48.636;9.000;2023-07-31T06:20:23;95998.94;;;18.94;57.24
33731;BME280;22931;48.636;9.000;2023-07-31T06:25:31;95995.53;;;18.94;57.77
33731;BME280;22931;48.636;9.000;2023-07-31T06:30:41;95993.63;;;18.98;57.50
33731;BME280;22931;48.636;9.000;2023-07-31T06:35:49;95998.94;;;19.01;57.69
33731;BME280;22931;48.636;9.000;2023-07-31T06:40:57;96001.22;;;19.10;57.68
33731;BME280;22931;48.636;9.000;2023-07-31T06:46:09;95985.16;;;19.24;57.41
33731;BME280;22931;48.636;9.000;2023-07-31T06:51:17;95990.09;;;19.36;57.53
33731;BME280;22931;48.636;9.000;2023-07-31T06:56:25;96006.81;;;19.51;57.32
33731;BME280;22931;48.636;9.000;2023-07-31T07:01:37;96009.00;;;19.66;56.84
33731;BME280;22931;48.636;9.000;2023-07-31T07:06:45;96003.63;;;19.77;57.35
33731;BME280;22931;48.636;9.000;2023-07-31T07:11:53;96012.72;;;19.87;56.66
33731;BME280;22931;48.636;9.000;2023-07-31T07:17:04;95999.69;;;19.99;57.33
33731;BME280;22931;48.636;9.000;2023-07-31T07:22:12;95998.00;;;20.23;56.04
33731;BME280;22931;48.636;9.000;2023-07-31T07:27:20;95988.50;;;20.15;56.42
33731;BME280;22931;48.636;9.000;2023-07-31T07:32:30;95989.22;;;20.22;56.52
33731;BME280;22931;48.636;9.000;2023-07-31T07:37:38;95981.97;;;20.26;56.09
33731;BME280;22931;48.636;9.000;2023-07-31T07:42:45;95975.44;;;20.27;56.27
33731;BME280;22931;48.636;9.000;2023-07-31T07:47:56;95991.00;;;20.39;56.42
33731;BME280;22931;48.636;9.000;2023-07-31T07:53:04;95976.00;;;20.53;56.66
33731;BME280;22931;48.636;9.000;2023-07-31T07:58:11;95978.94;;;20.65;56.45
33731;BME280;22931;48.636;9.000;2023-07-31T08:03:22;95974.22;;;20.80;55.65
33731;BME280;22931;48.636;9.000;2023-07-31T08:08:30;95975.06;;;21.11;55.72
33731;BME280;22931;48.636;9.000;2023-07-31T08:13:37;95958.63;;;21.12;56.09
33731;BME280;22931;48.636;9.000;2023-07-31T08:18:48;95958.41;;;21.30;55.14
33731;BME280;22931;48.636;9.000;2023-07-31T08:23:56;95959.75;;;21.45;55.30
33731;BME280;22931;48.636;9.000;2023-07-31T08:29:05;95958.00;;;21.61;54.91
33731;BME280;22931;48.636;9.000;2023-07-31T08:34:15;95955.84;;;21.80;54.14
33731;BME280;22931;48.636;9.000;2023-07-31T08:39:23;95941.91;;;21.92;54.46
33731;BME280;22931;48.636;9.000;2023-07-31T08:44:30;95956.72;;;22.00;54.30
33731;BME280;22931;48.636;9.000;2023-07-31T08:49:42;95952.47;;;22.02;53.20
33731;BME280;22931;48.636;9.000;2023-07-31T08:54:50;95947.81;;;22.06;53.79
33731;BME280;22931;48.636;9.000;2023-07-31T08:59:58;95955.78;;;22.10;53.71
33731;BME280;22931;48.636;9.000;2023-07-31T09:05:11;95947.28;;;22.15;53.42
33731;BME280;22931;48.636;9.000;2023-07-31T09:10:19;95931.56;;;22.17;53.02
33731;BME280;22931;48.636;9.000;2023-07-31T09:15:27;95929.47;;;22.28;53.25
33731;BME280;22931;48.636;9.000;2023-07-31T09:26:40;95928.94;;;22.60;53.37
33731;BME280;22931;48.636;9.000;2023-07-31T09:31:48;95925.72;;;22.68;52.34
33731;BME280;22931;48.636;9.000;2023-07-31T09:37:01;95935.16;;;22.76;52.63
33731;BME280;22931;48.636;9.000;2023-07-31T09:42:11;95915.97;;;22.78;52.20
33731;BME280;22931;48.636;9.000;2023-07-31T09:47:22;95891.75;;;22.81;51.62
33731;BME280;22931;48.636;9.000;2023-07-31T09:52:33;95893.97;;;22.86;52.57
33731;BME280;22931;48.636;9.000;2023-07-31T09:57:48;95884.47;;;23.02;52.05
33731;BME280;22931;48.636;9.000;2023-07-31T12:47:01;95740.75;;;24.22;48.71
33731;BME280;22931;48.636;9.000;2023-07-31T21:51:23;95299.81;;;21.33;56.26
33731;BME280;22931;48.636;9.000;2023-07-31T21:56:31;95288.78;;;21.31;55.92
33731;BME280;22931;48.636;9.000;2023-07-31T22:01:42;95278.47;;;21.30;55.71
33731;BME280;22931;48.636;9.000;2023-07-31T22:06:52;95278.41;;;21.33;56.34
33731;BME280;22931;48.636;9.000;2023-07-31T22:12:00;95261.69;;;21.29;56.10
33731;BME280;22931;48.636;9.000;2023-07-31T22:17:10;95244.53;;;21.27;56.41
33731;BME280;22931;48.636;9.000;2023-07-31T22:22:20;95244.94;;;21.25;56.68
33731;BME280;22931;48.636;9.000;2023-07-31T22:27:29;95241.94;;;21.23;56.45
33731;BME280;22931;48.636;9.000;2023-07-31T22:32:46;95233.41;;;21.28;57.03
33731;BME280;22931;48.636;9.000;2023-07-31T22:37:57;95221.19;;;21.27;56.41
33731;BME280;22931;48.636;9.000;2023-07-31T22:43:05;95192.09;;;21.29;55.98
33731;BME280;22931;48.636;9.000;2023-07-31T22:48:17;95204.22;;;21.34;56.15
33731;BME280;22931;48.636;9.000;2023-07-31T22:53:27;95178.88;;;21.38;56.70
33731;BME280;22931;48.636;9.000;2023-07-31T22:58:37;95181.88;;;21.40;56.12
33731;BME280;22931;48.636;9.000;2023-07-31T23:03:45;95159.28;;;21.41;55.74
33731;BME280;22931;48.636;9.000;2023-07-31T23:08:58;95147.31;;;21.46;56.39
33731;BME280;22931;48.636;9.000;2023-07-31T23:14:05;95145.03;;;21.44;55.81
33731;BME280;22931;48.636;9.000;2023-07-31T23:19:13;95138.97;;;21.44;56.34
33731;BME280;22931;48.636;9.000;2023-07-31T23:24:26;95140.88;;;21.43;56.10
33731;BME280;22931;48.636;9.000;2023-07-31T23:29:34;95152.00;;;21.42;56.00
33731;BME280;22931;48.636;9.000;2023-07-31T23:34:41;95149.00;;;21.40;56.11
33731;BME280;22931;48.636;9.000;2023-07-31T23:39:53;95139.78;;;21.41;56.35
33731;BME280;22931;48.636;9.000;2023-07-31T23:45:03;95142.88;;;21.39;56.06
33731;BME280;22931;48.636;9.000;2023-07-31T23:50:15;95142.22;;;21.35;55.99
33731;BME280;22931;48.636;9.000;2023-07-31T23:55:25;95119.31;;;21.34;56.38
